sensor_id;sensor_type;location;lat;lon;timestamp;pressure;altitude;pressure_sealevel;temperature;humidity
46690;BME280;32423;45.398;10.874;2023-02-28T00:02:08;101306.94;;;6.00;42.80
46690;BME280;32423;45.398;10.874;2023-02-28T00:04:55;101303.38;;;5.84;43.27
46690;BME280;32423;45.398;10.874;2023-02-28T00:07:50;101312.34;;;5.95;42.61
46690;BME280;32423;45.398;10.874;2023-02-28T00:10:40;101309.88;;;5.83;42.97
46690;BME280;32423;45.398;10.874;2023-02-28T00:13:29;101314.72;;;5.76;42.74
46690;BME280;32423;45.398;10.874;2023-02-28T00:16:21;101306.69;;;5.96;42.62
46690;BME280;32423;45.398;10.874;2023-02-28T00:19:11;101311.22;;;5.76;43.37
46690;BME280;32423;45.398;10.874;2023-02-28T00:22:03;101316.09;;;5.69;42.89
46690;BME280;32423;45.398;10.874;2023-02-28T00:24:55;101326.06;;;5.68;43.10
46690;BME280;32423;45.398;10.874;2023-02-28T00:27:44;101315.78;;;5.70;42.68
46690;BME280;32423;45.398;10.874;2023-02-28T00:30:34;101324.69;;;5.71;42.98
46690;BME280;32423;45.398;10.874;2023-02-28T00:33:25;101321.19;;;5.75;42.80
46690;BME280;32423;45.398;10.874;2023-02-28T00:36:14;101327.38;;;5.55;42.87
46690;BME280;32423;45.398;10.874;2023-02-28T00:39:06;101334.13;;;5.58;42.77
46690;BME280;32423;45.398;10.874;2023-02-28T00:41:56;101336.84;;;5.63;43.21
46690;BME280;32423;45.398;10.874;2023-02-28T00:44:48;101336.88;;;5.83;42.18
46690;BME280;32423;45.398;10.874;2023-02-28T00:47:37;101331.47;;;5.68;42.37
46690;BME280;32423;45.398;10.874;2023-02-28T00:50:27;101339.53;;;5.63;42.95
46690;BME280;32423;45.398;10.874;2023-02-28T00:53:19;101341.66;;;5.51;43.31
46690;BME280;32423;45.398;10.874;2023-02-28T00:56:08;101338.41;;;5.54;43.21
46690;BME280;32423;45.398;10.874;2023-02-28T00:59:00;101340.03;;;5.50;43.14
46690;BME280;32423;45.398;10.874;2023-02-28T01:01:52;101343.78;;;5.44;43.31
46690;BME280;32423;45.398;10.874;2023-02-28T01:04:44;101343.81;;;5.54;42.91
46690;BME280;32423;45.398;10.874;2023-02-28T01:07:36;101346.22;;;5.40;43.02
46690;BME280;32423;45.398;10.874;2023-02-28T01:10:28;101350.31;;;5.58;42.98
46690;BME280;32423;45.398;10.874;2023-02-28T01:13:20;101353.50;;;5.45;43.02
46690;BME280;32423;45.398;10.874;2023-02-28T01:16:12;101354.84;;;5.42;43.32
46690;BME280;32423;45.398;10.874;2023-02-28T01:19:03;101349.47;;;5.42;42.99
46690;BME280;32423;45.398;10.874;2023-02-28T01:21:52;101353.53;;;5.60;43.08
46690;BME280;32423;45.398;10.874;2023-02-28T01:24:44;101350.84;;;5.55;42.60
46690;BME280;32423;45.398;10.874;2023-02-28T01:27:36;101344.31;;;5.41;43.25
46690;BME280;32423;45.398;10.874;2023-02-28T01:30:28;101345.13;;;5.36;42.93
46690;BME280;32423;45.398;10.874;2023-02-28T01:33:20;101336.72;;;5.23;43.28
46690;BME280;32423;45.398;10.874;2023-02-28T01:36:10;101339.09;;;5.14;43.91
46690;BME280;32423;45.398;10.874;2023-02-28T01:39:02;101347.97;;;5.09;43.83
46690;BME280;32423;45.398;10.874;2023-02-28T01:41:54;101340.72;;;5.10;44.21
46690;BME280;32423;45.398;10.874;2023-02-28T01:44:59;101352.31;;;5.10;43.99
46690;BME280;32423;45.398;10.874;2023-02-28T01:47:50;101356.06;;;5.09;43.63
46690;BME280;32423;45.398;10.874;2023-02-28T01:50:44;101350.94;;;5.13;43.69
46690;BME280;32423;45.398;10.874;2023-02-28T01:53:37;101351.22;;;5.06;43.70
46690;BME280;32423;45.398;10.874;2023-02-28T01:56:30;101352.84;;;5.07;43.75
46690;BME280;32423;45.398;10.874;2023-02-28T01:59:46;101347.72;;;5.11;43.66
46690;BME280;32423;45.398;10.874;2023-02-28T02:02:38;101343.09;;;5.01;44.52
46690;BME280;32423;45.398;10.874;2023-02-28T02:05:31;101332.63;;;5.10;44.22
46690;BME280;32423;45.398;10.874;2023-02-28T02:08:24;101334.59;;;5.30;43.53
46690;BME280;32423;45.398;10.874;2023-02-28T02:11:15;101331.06;;;5.24;43.43
46690;BME280;32423;45.398;10.874;2023-02-28T02:26:13;101329.97;;;5.25;43.75
46690;BME280;32423;45.398;10.874;2023-02-28T02:38:16;101328.38;;;5.29;43.47
46690;BME280;32423;45.398;10.874;2023-02-28T02:44:36;101330.28;;;5.34;43.27
46690;BME280;32423;45.398;10.874;2023-02-28T02:47:32;101328.69;;;5.38;43.31
46690;BME280;32423;45.398;10.874;2023-02-28T02:50:24;101327.06;;;5.42;43.34
46690;BME280;32423;45.398;10.874;2023-02-28T02:53:18;101327.16;;;5.72;42.81
46690;BME280;32423;45.398;10.874;2023-02-28T02:56:07;101322.81;;;5.76;42.28
46690;BME280;32423;45.398;10.874;2023-02-28T02:58:57;101324.97;;;5.74;42.46
46690;BME280;32423;45.398;10.874;2023-02-28T03:01:50;101326.09;;;5.83;42.06
46690;BME280;32423;45.398;10.874;2023-02-28T03:04:46;101327.94;;;5.73;42.58
46690;BME280;32423;45.398;10.874;2023-02-28T03:07:41;101340.03;;;5.55;43.02
46690;BME280;32423;45.398;10.874;2023-02-28T03:10:38;101333.56;;;5.46;43.06
46690;BME280;32423;45.398;10.874;2023-02-28T03:19:48;101333.00;;;5.49;43.15
46690;BME280;32423;45.398;10.874;2023-02-28T03:22:49;101331.94;;;5.55;43.10
46690;BME280;32423;45.398;10.874;2023-02-28T03:28:33;101335.69;;;5.44;43.29
46690;BME280;32423;45.398;10.874;2023-02-28T03:31:35;101339.72;;;5.36;43.28
46690;BME280;32423;45.398;10.874;2023-02-28T03:34:28;101334.63;;;5.40;43.46
46690;BME280;32423;45.398;10.874;2023-02-28T03:37:22;101337.91;;;5.57;42.52
46690;BME280;32423;45.398;10.874;2023-02-28T03:40:13;101340.28;;;5.33;43.32
46690;BME280;32423;45.398;10.874;2023-02-28T03:43:08;101334.06;;;5.28;43.40
46690;BME280;32423;45.398;10.874;2023-02-28T03:46:02;101337.28;;;5.35;43.15
46690;BME280;32423;45.398;10.874;2023-02-28T03:48:58;101335.63;;;5.24;43.65
46690;BME280;32423;45.398;10.874;2023-02-28T03:51:52;101343.00;;;5.38;43.44
46690;BME280;32423;45.398;10.874;2023-02-28T03:54:46;101341.59;;;5.31;43.39
46690;BME280;32423;45.398;10.874;2023-02-28T03:57:43;101342.38;;;5.21;43.49
46690;BME280;32423;45.398;10.874;2023-02-28T04:00:40;101349.59;;;5.10;43.72
46690;BME280;32423;45.398;10.874;2023-02-28T04:03:32;101350.69;;;5.09;44.30
46690;BME280;32423;45.398;10.874;2023-02-28T04:06:24;101352.34;;;5.21;44.14
46690;BME280;32423;45.398;10.874;2023-02-28T04:09:16;101356.19;;;5.40;44.27
46690;BME280;32423;45.398;10.874;2023-02-28T04:12:08;101361.31;;;5.36;44.18
46690;BME280;32423;45.398;10.874;2023-02-28T04:15:00;101363.75;;;5.38;44.11
46690;BME280;32423;45.398;10.874;2023-02-28T04:17:52;101365.06;;;4.78;45.62
46690;BME280;32423;45.398;10.874;2023-02-28T04:20:44;101374.03;;;4.94;45.31
46690;BME280;32423;45.398;10.874;2023-02-28T04:23:36;101376.63;;;5.26;44.81
46690;BME280;32423;45.398;10.874;2023-02-28T04:26:25;101370.31;;;5.00;45.40
46690;BME280;32423;45.398;10.874;2023-02-28T04:29:19;101373.75;;;4.85;45.55
46690;BME280;32423;45.398;10.874;2023-02-28T04:32:09;101379.59;;;4.72;45.91
46690;BME280;32423;45.398;10.874;2023-02-28T04:35:01;101376.88;;;4.67;45.93
46690;BME280;32423;45.398;10.874;2023-02-28T04:37:53;101368.19;;;4.60;45.97
46690;BME280;32423;45.398;10.874;2023-02-28T04:40:45;101369.50;;;4.57;46.04
46690;BME280;32423;45.398;10.874;2023-02-28T04:43:35;101370.81;;;4.50;46.28
46690;BME280;32423;45.398;10.874;2023-02-28T04:46:26;101371.66;;;4.55;46.02
46690;BME280;32423;45.398;10.874;2023-02-28T04:49:19;101369.75;;;4.51;46.22
46690;BME280;32423;45.398;10.874;2023-02-28T04:52:11;101363.50;;;4.45;46.40
46690;BME280;32423;45.398;10.874;2023-02-28T04:55:03;101359.78;;;4.51;46.53
46690;BME280;32423;45.398;10.874;2023-02-28T04:57:55;101365.47;;;4.55;46.54
46690;BME280;32423;45.398;10.874;2023-02-28T05:00:47;101364.44;;;4.61;46.23
46690;BME280;32423;45.398;10.874;2023-02-28T05:03:39;101371.22;;;4.73;45.96
46690;BME280;32423;45.398;10.874;2023-02-28T05:06:34;101369.06;;;4.70;46.19
46690;BME280;32423;45.398;10.874;2023-02-28T05:09:26;101364.75;;;4.69;46.11
46690;BME280;32423;45.398;10.874;2023-02-28T05:12:18;101363.97;;;4.74;45.73
46690;BME280;32423;45.398;10.874;2023-02-28T05:15:10;101367.22;;;4.76;45.87
46690;BME280;32423;45.398;10.874;2023-02-28T05:18:03;101366.81;;;4.99;45.47
46690;BME280;32423;45.398;10.874;2023-02-28T05:20:55;101372.06;;;5.26;45.06
46690;BME280;32423;45.398;10.874;2023-02-28T05:23:47;101371.34;;;5.56;44.11
46690;BME280;32423;45.398;10.874;2023-02-28T05:26:39;101375.41;;;5.58;43.56
46690;BME280;32423;45.398;10.874;2023-02-28T05:29:32;101380.84;;;5.69;43.81
46690;BME280;32423;45.398;10.874;2023-02-28T05:32:21;101378.22;;;5.94;43.02
46690;BME280;32423;45.398;10.874;2023-02-28T05:35:14;101372.03;;;6.04;42.59
46690;BME280;32423;45.398;10.874;2023-02-28T05:37:58;101370.38;;;6.03;41.98
46690;BME280;32423;45.398;10.874;2023-02-28T05:40:50;101370.66;;;6.06;42.16
46690;BME280;32423;45.398;10.874;2023-02-28T05:43:42;101374.16;;;5.91;42.05
46690;BME280;32423;45.398;10.874;2023-02-28T05:46:34;101377.28;;;5.53;43.08
46690;BME280;32423;45.398;10.874;2023-02-28T05:49:26;101375.97;;;5.71;43.28
46690;BME280;32423;45.398;10.874;2023-02-28T05:52:16;101373.00;;;5.72;42.65
46690;BME280;32423;45.398;10.874;2023-02-28T05:55:08;101383.28;;;5.80;42.34
46690;BME280;32423;45.398;10.874;2023-02-28T05:58:00;101384.41;;;6.15;41.80
46690;BME280;32423;45.398;10.874;2023-02-28T06:00:50;101378.22;;;5.99;41.86
46690;BME280;32423;45.398;10.874;2023-02-28T06:03:42;101390.09;;;6.08;42.16
46690;BME280;32423;45.398;10.874;2023-02-28T06:06:31;101387.13;;;6.05;41.94
46690;BME280;32423;45.398;10.874;2023-02-28T06:09:23;101381.19;;;6.13;41.40
46690;BME280;32423;45.398;10.874;2023-02-28T06:12:14;101393.31;;;6.05;41.49
46690;BME280;32423;45.398;10.874;2023-02-28T06:15:04;101401.72;;;6.14;41.52
46690;BME280;32423;45.398;10.874;2023-02-28T06:17:53;101405.50;;;6.08;41.47
46690;BME280;32423;45.398;10.874;2023-02-28T06:20:45;101406.00;;;6.05;42.29
46690;BME280;32423;45.398;10.874;2023-02-28T06:23:43;101406.53;;;5.91;42.14
46690;BME280;32423;45.398;10.874;2023-02-28T06:26:35;101412.47;;;5.88;42.88
46690;BME280;32423;45.398;10.874;2023-02-28T06:29:27;101411.94;;;5.91;42.40
46690;BME280;32423;45.398;10.874;2023-02-28T06:32:19;101412.78;;;6.07;42.00
46690;BME280;32423;45.398;10.874;2023-02-28T06:35:11;101413.06;;;6.36;41.63
46690;BME280;32423;45.398;10.874;2023-02-28T06:38:00;101417.38;;;6.42;41.52
46690;BME280;32423;45.398;10.874;2023-02-28T06:40:55;101417.94;;;6.49;42.35
46690;BME280;32423;45.398;10.874;2023-02-28T06:43:45;101423.59;;;6.42;41.73
46690;BME280;32423;45.398;10.874;2023-02-28T06:46:37;101418.47;;;6.46;41.24
46690;BME280;32423;45.398;10.874;2023-02-28T06:49:29;101419.53;;;6.40;41.32
46690;BME280;32423;45.398;10.874;2023-02-28T06:52:19;101422.25;;;6.40;42.14
46690;BME280;32423;45.398;10.874;2023-02-28T06:55:10;101435.75;;;6.40;41.73
46690;BME280;32423;45.398;10.874;2023-02-28T06:58:02;101435.22;;;6.38;42.05
46690;BME280;32423;45.398;10.874;2023-02-28T07:00:54;101438.44;;;7.01;45.41
46690;BME280;32423;45.398;10.874;2023-02-28T07:03:46;101428.09;;;8.31;44.80
46690;BME280;32423;45.398;10.874;2023-02-28T07:06:38;101426.19;;;8.66;40.80
46690;BME280;32423;45.398;10.874;2023-02-28T07:09:27;101437.44;;;8.83;39.39
46690;BME280;32423;45.398;10.874;2023-02-28T07:12:20;101430.78;;;8.65;39.69
46690;BME280;32423;45.398;10.874;2023-02-28T07:15:09;101441.06;;;8.34;38.89
46690;BME280;32423;45.398;10.874;2023-02-28T07:18:01;101431.25;;;7.45;39.18
46690;BME280;32423;45.398;10.874;2023-02-28T07:20:53;101438.06;;;7.27;39.60
46690;BME280;32423;45.398;10.874;2023-02-28T07:23:43;101437.31;;;7.02;39.80
46690;BME280;32423;45.398;10.874;2023-02-28T07:26:35;101434.38;;;6.83;40.55
46690;BME280;32423;45.398;10.874;2023-02-28T07:29:27;101441.41;;;6.89;40.49
46690;BME280;32423;45.398;10.874;2023-02-28T07:32:17;101449.00;;;6.77;40.74
46690;BME280;32423;45.398;10.874;2023-02-28T07:35:08;101445.75;;;6.90;40.44
46690;BME280;32423;45.398;10.874;2023-02-28T07:38:01;101447.63;;;7.00;40.70
46690;BME280;32423;45.398;10.874;2023-02-28T07:40:53;101448.13;;;7.02;40.80
46690;BME280;32423;45.398;10.874;2023-02-28T07:43:45;101443.03;;;7.00;40.67
46690;BME280;32423;45.398;10.874;2023-02-28T07:46:37;101440.38;;;6.70;40.53
46690;BME280;32423;45.398;10.874;2023-02-28T07:49:29;101439.81;;;6.63;40.70
46690;BME280;32423;45.398;10.874;2023-02-28T07:52:21;101428.44;;;6.66;40.61
46690;BME280;32423;45.398;10.874;2023-02-28T07:55:13;101437.91;;;6.73;40.12
46690;BME280;32423;45.398;10.874;2023-02-28T07:58:03;101441.69;;;6.77;40.02
46690;BME280;32423;45.398;10.874;2023-02-28T08:00:55;101443.56;;;6.82;40.38
46690;BME280;32423;45.398;10.874;2023-02-28T08:03:47;101446.56;;;6.96;41.11
46690;BME280;32423;45.398;10.874;2023-02-28T08:06:39;101442.75;;;6.97;40.78
46690;BME280;32423;45.398;10.874;2023-02-28T08:09:31;101449.25;;;7.06;40.38
46690;BME280;32423;45.398;10.874;2023-02-28T08:12:23;101438.41;;;7.16;39.90
46690;BME280;32423;45.398;10.874;2023-02-28T08:15:15;101443.50;;;7.22;39.34
46690;BME280;32423;45.398;10.874;2023-02-28T08:18:07;101444.31;;;7.23;40.53
46690;BME280;32423;45.398;10.874;2023-02-28T08:20:59;101444.84;;;7.30;39.65
46690;BME280;32423;45.398;10.874;2023-02-28T08:23:51;101440.47;;;7.44;39.34
46690;BME280;32423;45.398;10.874;2023-02-28T08:26:38;101442.66;;;7.32;38.63
46690;BME280;32423;45.398;10.874;2023-02-28T08:29:30;101448.63;;;7.34;39.68
46690;BME280;32423;45.398;10.874;2023-02-28T08:32:22;101442.38;;;7.39;38.71
46690;BME280;32423;45.398;10.874;2023-02-28T08:35:11;101447.72;;;7.59;38.97
46690;BME280;32423;45.398;10.874;2023-02-28T08:38:03;101449.56;;;7.63;39.01
46690;BME280;32423;45.398;10.874;2023-02-28T08:41:01;101450.69;;;7.57;38.33
46690;BME280;32423;45.398;10.874;2023-02-28T08:43:54;101453.59;;;7.76;38.28
46690;BME280;32423;45.398;10.874;2023-02-28T08:46:41;101452.75;;;7.81;38.23
46690;BME280;32423;45.398;10.874;2023-02-28T08:49:30;101457.06;;;7.87;38.70
46690;BME280;32423;45.398;10.874;2023-02-28T08:52:22;101457.19;;;7.56;38.51
46690;BME280;32423;45.398;10.874;2023-02-28T08:55:14;101461.97;;;7.74;39.07
46690;BME280;32423;45.398;10.874;2023-02-28T08:58:06;101460.59;;;7.82;38.92
46690;BME280;32423;45.398;10.874;2023-02-28T09:00:57;101457.34;;;7.85;38.38
46690;BME280;32423;45.398;10.874;2023-02-28T09:03:50;101461.16;;;7.74;38.15
46690;BME280;32423;45.398;10.874;2023-02-28T09:06:42;101464.16;;;7.72;38.81
46690;BME280;32423;45.398;10.874;2023-02-28T09:09:33;101464.59;;;7.95;37.78
46690;BME280;32423;45.398;10.874;2023-02-28T09:12:26;101455.28;;;8.11;38.45
46690;BME280;32423;45.398;10.874;2023-02-28T09:15:17;101463.59;;;8.25;37.62
46690;BME280;32423;45.398;10.874;2023-02-28T09:18:09;101471.44;;;8.31;37.05
46690;BME280;32423;45.398;10.874;2023-02-28T09:21:02;101462.75;;;8.34;37.01
46690;BME280;32423;45.398;10.874;2023-02-28T09:23:54;101468.25;;;8.14;37.06
46690;BME280;32423;45.398;10.874;2023-02-28T09:26:45;101469.28;;;8.23;37.09
46690;BME280;32423;45.398;10.874;2023-02-28T09:29:37;101471.72;;;8.25;37.56
46690;BME280;32423;45.398;10.874;2023-02-28T09:32:29;101477.69;;;8.32;36.83
46690;BME280;32423;45.398;10.874;2023-02-28T09:35:22;101468.91;;;8.45;37.26
46690;BME280;32423;45.398;10.874;2023-02-28T09:38:14;101467.47;;;8.57;37.36
46690;BME280;32423;45.398;10.874;2023-02-28T09:41:08;101462.81;;;8.19;37.70
46690;BME280;32423;45.398;10.874;2023-02-28T09:43:59;101466.41;;;8.09;37.41
46690;BME280;32423;45.398;10.874;2023-02-28T09:46:52;101471.03;;;8.04;37.30
46690;BME280;32423;45.398;10.874;2023-02-28T09:49:45;101464.03;;;8.47;37.38
46690;BME280;32423;45.398;10.874;2023-02-28T09:52:37;101469.41;;;8.52;36.49
46690;BME280;32423;45.398;10.874;2023-02-28T09:55:30;101464.56;;;8.00;36.88
46690;BME280;32423;45.398;10.874;2023-02-28T10:04:33;101462.56;;;8.59;35.41
46690;BME280;32423;45.398;10.874;2023-02-28T10:13:24;101467.56;;;9.05;35.33
46690;BME280;32423;45.398;10.874;2023-02-28T10:16:16;101466.91;;;8.89;34.84
46690;BME280;32423;45.398;10.874;2023-02-28T10:22:30;101456.13;;;9.13;34.90
46690;BME280;32423;45.398;10.874;2023-02-28T10:25:24;101456.88;;;8.90;35.25
46690;BME280;32423;45.398;10.874;2023-02-28T10:28:17;101458.88;;;9.08;35.22
46690;BME280;32423;45.398;10.874;2023-02-28T10:31:08;101459.63;;;9.37;34.88
46690;BME280;32423;45.398;10.874;2023-02-28T10:34:03;101450.47;;;9.33;34.98
46690;BME280;32423;45.398;10.874;2023-02-28T10:36:55;101460.63;;;9.47;35.60
46690;BME280;32423;45.398;10.874;2023-02-28T10:39:47;101451.97;;;9.44;35.09
46690;BME280;32423;45.398;10.874;2023-02-28T10:42:40;101454.97;;;9.43;34.75
46690;BME280;32423;45.398;10.874;2023-02-28T10:45:32;101444.06;;;9.67;34.22
46690;BME280;32423;45.398;10.874;2023-02-28T10:48:27;101450.19;;;9.77;34.84
46690;BME280;32423;45.398;10.874;2023-02-28T10:51:18;101449.25;;;9.87;34.02
46690;BME280;32423;45.398;10.874;2023-02-28T10:54:41;101444.81;;;9.72;33.84
46690;BME280;32423;45.398;10.874;2023-02-28T10:57:27;101433.94;;;9.54;34.10
46690;BME280;32423;45.398;10.874;2023-02-28T11:00:22;101433.22;;;9.67;33.38
46690;BME280;32423;45.398;10.874;2023-02-28T11:03:28;101428.38;;;9.64;34.32
46690;BME280;32423;45.398;10.874;2023-02-28T11:06:21;101430.75;;;9.89;34.16
46690;BME280;32423;45.398;10.874;2023-02-28T11:09:16;101431.72;;;10.17;33.38
46690;BME280;32423;45.398;10.874;2023-02-28T11:12:10;101421.84;;;10.02;33.85
46690;BME280;32423;45.398;10.874;2023-02-28T11:15:18;101424.91;;;10.52;33.40
46690;BME280;32423;45.398;10.874;2023-02-28T11:18:25;101421.06;;;10.71;32.37
46690;BME280;32423;45.398;10.874;2023-02-28T11:21:25;101422.94;;;10.57;32.76
46690;BME280;32423;45.398;10.874;2023-02-28T11:24:25;101423.81;;;10.53;32.69
46690;BME280;32423;45.398;10.874;2023-02-28T11:33:25;101403.84;;;10.44;33.55
46690;BME280;32423;45.398;10.874;2023-02-28T11:36:27;101392.81;;;10.54;33.01
46690;BME280;32423;45.398;10.874;2023-02-28T11:39:19;101391.56;;;10.92;33.00
46690;BME280;32423;45.398;10.874;2023-02-28T11:45:12;101384.34;;;11.01;31.62
46690;BME280;32423;45.398;10.874;2023-02-28T11:49:06;101377.75;;;11.43;31.97
46690;BME280;32423;45.398;10.874;2023-02-28T11:51:26;101381.34;;;11.66;31.84
46690;BME280;32423;45.398;10.874;2023-02-28T11:54:29;101381.50;;;11.97;30.20
46690;BME280;32423;45.398;10.874;2023-02-28T11:57:43;101377.69;;;11.84;30.67
46690;BME280;32423;45.398;10.874;2023-02-28T12:00:38;101360.88;;;12.49;30.18
46690;BME280;32423;45.398;10.874;2023-02-28T12:09:33;101355.97;;;13.47;28.10
46690;BME280;32423;45.398;10.874;2023-02-28T12:15:58;101351.66;;;18.83;21.21
46690;BME280;32423;45.398;10.874;2023-02-28T12:19:16;101344.41;;;20.14;19.72
46690;BME280;32423;45.398;10.874;2023-02-28T12:22:35;101329.91;;;19.79;20.34
46690;BME280;32423;45.398;10.874;2023-02-28T12:28:25;101343.47;;;29.55;12.31
46690;BME280;32423;45.398;10.874;2023-02-28T12:31:18;101347.56;;;32.13;9.83
46690;BME280;32423;45.398;10.874;2023-02-28T12:34:12;101349.94;;;32.28;9.63
46690;BME280;32423;45.398;10.874;2023-02-28T12:37:08;101329.13;;;23.59;15.17
46690;BME280;32423;45.398;10.874;2023-02-28T12:40:00;101322.53;;;19.86;18.93
46690;BME280;32423;45.398;10.874;2023-02-28T12:42:56;101327.78;;;27.06;13.62
46690;BME280;32423;45.398;10.874;2023-02-28T12:48:39;101322.69;;;27.35;13.06
46690;BME280;32423;45.398;10.874;2023-02-28T12:51:32;101311.75;;;22.67;16.44
46690;BME280;32423;45.398;10.874;2023-02-28T12:54:29;101316.63;;;24.15;15.96
46690;BME280;32423;45.398;10.874;2023-02-28T12:57:22;101299.50;;;26.49;13.80
46690;BME280;32423;45.398;10.874;2023-02-28T13:00:19;101299.69;;;24.87;14.79
46690;BME280;32423;45.398;10.874;2023-02-28T13:11:54;101286.66;;;23.59;16.76
46690;BME280;32423;45.398;10.874;2023-02-28T13:14:46;101281.16;;;23.00;16.41
46690;BME280;32423;45.398;10.874;2023-02-28T13:17:38;101276.66;;;28.11;12.96
46690;BME280;32423;45.398;10.874;2023-02-28T13:20:37;101277.00;;;25.10;15.32
46690;BME280;32423;45.398;10.874;2023-02-28T13:23:41;101270.53;;;24.00;15.83
46690;BME280;32423;45.398;10.874;2023-02-28T13:29:39;101277.31;;;25.44;15.28
46690;BME280;32423;45.398;10.874;2023-02-28T13:32:31;101269.91;;;26.03;14.40
46690;BME280;32423;45.398;10.874;2023-02-28T13:35:37;101269.72;;;23.88;17.16
46690;BME280;32423;45.398;10.874;2023-02-28T13:38:34;101265.88;;;24.82;15.11
46690;BME280;32423;45.398;10.874;2023-02-28T13:41:40;101266.78;;;29.46;12.02
46690;BME280;32423;45.398;10.874;2023-02-28T13:44:32;101264.03;;;27.69;12.83
46690;BME280;32423;45.398;10.874;2023-02-28T13:47:41;101272.91;;;31.55;10.03
46690;BME280;32423;45.398;10.874;2023-02-28T13:50:37;101272.84;;;31.71;10.03
46690;BME280;32423;45.398;10.874;2023-02-28T13:57:01;101268.72;;;31.88;9.86
46690;BME280;32423;45.398;10.874;2023-02-28T14:00:04;101248.53;;;28.48;12.31
46690;BME280;32423;45.398;10.874;2023-02-28T14:03:17;101239.56;;;25.32;14.99
46690;BME280;32423;45.398;10.874;2023-02-28T14:06:16;101243.47;;;23.65;15.93
46690;BME280;32423;45.398;10.874;2023-02-28T14:09:28;101242.72;;;23.02;17.30
46690;BME280;32423;45.398;10.874;2023-02-28T14:15:34;101239.25;;;25.02;15.79
46690;BME280;32423;45.398;10.874;2023-02-28T14:18:31;101222.75;;;22.79;17.07
46690;BME280;32423;45.398;10.874;2023-02-28T14:21:25;101215.44;;;19.73;20.31
46690;BME280;32423;45.398;10.874;2023-02-28T14:24:41;101209.88;;;17.46;22.37
46690;BME280;32423;45.398;10.874;2023-02-28T14:27:42;101228.06;;;17.90;22.82
46690;BME280;32423;45.398;10.874;2023-02-28T14:36:28;101216.22;;;17.34;23.93
46690;BME280;32423;45.398;10.874;2023-02-28T14:39:26;101210.91;;;17.14;24.11
46690;BME280;32423;45.398;10.874;2023-02-28T14:42:38;101203.63;;;17.33;24.20
46690;BME280;32423;45.398;10.874;2023-02-28T14:45:33;101196.22;;;17.49;24.14
46690;BME280;32423;45.398;10.874;2023-02-28T14:48:24;101209.31;;;16.52;25.18
46690;BME280;32423;45.398;10.874;2023-02-28T14:51:17;101196.66;;;17.64;23.95
46690;BME280;32423;45.398;10.874;2023-02-28T14:54:12;101191.72;;;16.53;24.65
46690;BME280;32423;45.398;10.874;2023-02-28T14:57:05;101205.59;;;18.04;23.79
46690;BME280;32423;45.398;10.874;2023-02-28T15:03:11;101201.53;;;18.14;23.04
46690;BME280;32423;45.398;10.874;2023-02-28T15:06:12;101194.66;;;17.76;23.31
46690;BME280;32423;45.398;10.874;2023-02-28T15:09:10;101182.72;;;16.64;24.54
46690;BME280;32423;45.398;10.874;2023-02-28T15:12:02;101203.47;;;19.11;22.06
46690;BME280;32423;45.398;10.874;2023-02-28T15:14:52;101195.22;;;17.98;23.43
46690;BME280;32423;45.398;10.874;2023-02-28T15:17:45;101192.91;;;17.16;24.54
46690;BME280;32423;45.398;10.874;2023-02-28T15:20:36;101192.00;;;17.12;24.13
46690;BME280;32423;45.398;10.874;2023-02-28T15:23:30;101183.25;;;15.64;26.19
46690;BME280;32423;45.398;10.874;2023-02-28T15:26:22;101183.56;;;15.63;26.57
46690;BME280;32423;45.398;10.874;2023-02-28T15:29:16;101184.38;;;16.33;26.14
46690;BME280;32423;45.398;10.874;2023-02-28T15:32:14;101182.56;;;14.84;27.94
46690;BME280;32423;45.398;10.874;2023-02-28T15:38:17;101182.53;;;13.70;29.30
46690;BME280;32423;45.398;10.874;2023-02-28T15:41:21;101182.31;;;13.93;29.88
46690;BME280;32423;45.398;10.874;2023-02-28T15:44:23;101187.06;;;13.49;30.65
46690;BME280;32423;45.398;10.874;2023-02-28T15:47:23;101188.97;;;13.75;31.10
46690;BME280;32423;45.398;10.874;2023-02-28T15:50:15;101191.06;;;13.26;31.84
46690;BME280;32423;45.398;10.874;2023-02-28T15:53:08;101186.75;;;12.42;33.77
46690;BME280;32423;45.398;10.874;2023-02-28T15:56:03;101190.00;;;12.14;34.48
46690;BME280;32423;45.398;10.874;2023-02-28T15:58:57;101193.66;;;12.09;34.71
46690;BME280;32423;45.398;10.874;2023-02-28T16:02:01;101187.31;;;12.22;34.50
46690;BME280;32423;45.398;10.874;2023-02-28T16:04:56;101183.00;;;12.30;34.45
46690;BME280;32423;45.398;10.874;2023-02-28T16:07:45;101181.47;;;12.07;34.91
46690;BME280;32423;45.398;10.874;2023-02-28T16:10:37;101181.78;;;12.05;35.54
46690;BME280;32423;45.398;10.874;2023-02-28T16:13:29;101182.41;;;11.13;36.90
46690;BME280;32423;45.398;10.874;2023-02-28T16:16:21;101182.72;;;11.11;36.86
46690;BME280;32423;45.398;10.874;2023-02-28T16:19:13;101186.19;;;11.48;36.42
46690;BME280;32423;45.398;10.874;2023-02-28T16:22:05;101183.47;;;10.90;37.40
46690;BME280;32423;45.398;10.874;2023-02-28T16:24:54;101184.41;;;11.21;36.85
46690;BME280;32423;45.398;10.874;2023-02-28T16:27:46;101177.53;;;11.24;36.56
46690;BME280;32423;45.398;10.874;2023-02-28T16:30:37;101190.91;;;11.34;36.11
46690;BME280;32423;45.398;10.874;2023-02-28T16:33:29;101183.19;;;11.13;36.10
46690;BME280;32423;45.398;10.874;2023-02-28T16:36:21;101178.50;;;11.05;36.42
46690;BME280;32423;45.398;10.874;2023-02-28T16:39:10;101181.69;;;10.85;36.95
46690;BME280;32423;45.398;10.874;2023-02-28T16:42:03;101184.09;;;10.73;37.02
46690;BME280;32423;45.398;10.874;2023-02-28T16:44:55;101179.47;;;10.73;37.13
46690;BME280;32423;45.398;10.874;2023-02-28T16:47:47;101175.69;;;10.61;37.10
46690;BME280;32423;45.398;10.874;2023-02-28T16:50:39;101183.44;;;10.54;37.26